Time;durP1;ratioP1;P1;durP2;ratioP2;P2;SDS_P1;SDS_P2;PMS_P1;PMS_P2;Temp;Humidity;BMP_temperature;BMP_pressure;BME280_temperature;BME280_humidity;BME280_pressure;Samples;Min_cycle;Max_cycle;Signal;HPM_P1;HPM_P2
2021/01/18 00:00:20;;;;;;;16.65;3.50;;;;;;;2.56;100.00;102428.19;4777557;29;20131;-83
2021/01/18 00:02:46;;;;;;;11.30;2.88;;;;;;;2.55;100.00;102431.66;4780853;29;20032;-83
2021/01/18 00:05:11;;;;;;;22.13;3.55;;;;;;;2.65;100.00;102424.81;4806978;29;20037;-83
2021/01/18 00:07:50;;;;;;;21.05;3.70;;;;;;;2.69;100.00;102430.97;4789539;29;20117;-83
2021/01/18 00:10:20;;;;;;;14.85;4.60;;;;;;;2.69;100.00;102421.41;4809425;29;20399;-84
2021/01/18 00:12:47;;;;;;;20.90;3.95;;;;;;;2.64;100.00;102433.50;4803812;29;20042;-84
2021/01/18 00:15:14;;;;;;;24.73;4.30;;;;;;;2.63;100.00;102418.72;4790633;29;20031;-83
2021/01/18 00:17:39;;;;;;;20.52;4.80;;;;;;;2.44;100.00;102408.88;4797395;29;20045;-83
2021/01/18 00:20:06;;;;;;;16.98;3.75;;;;;;;2.54;100.00;102415.97;4794184;29;20035;-83
2021/01/18 00:22:31;;;;;;;11.18;4.03;;;;;;;2.54;100.00;102413.34;4793959;29;20027;-83
2021/01/18 00:24:56;;;;;;;19.48;4.38;;;;;;;2.41;100.00;102407.13;4794381;29;20037;-83
2021/01/18 00:27:21;;;;;;;22.05;4.10;;;;;;;2.46;100.00;102409.75;4807886;29;20696;-83
2021/01/18 00:29:48;;;;;;;15.35;4.85;;;;;;;2.41;100.00;102398.38;4792202;29;20051;-83
2021/01/18 00:32:15;;;;;;;19.50;4.57;;;;;;;2.44;100.00;102406.25;4783628;29;20083;-83
2021/01/18 00:34:41;;;;;;;25.17;4.05;;;;;;;2.38;100.00;102407.06;4794883;29;20043;-83
2021/01/18 00:37:06;;;;;;;14.50;3.83;;;;;;;2.26;100.00;102401.63;4800362;29;20088;-83
2021/01/18 00:39:32;;;;;;;25.38;5.30;;;;;;;2.28;100.00;102399.94;4787454;29;20026;-83
2021/01/18 00:41:57;;;;;;;19.83;4.63;;;;;;;2.14;100.00;102399.75;4795200;29;20057;-82
2021/01/18 00:44:22;;;;;;;25.67;4.00;;;;;;;2.16;100.00;102397.13;4793563;29;20065;-83
2021/01/18 00:46:47;;;;;;;22.52;4.70;;;;;;;2.29;100.00;102384.31;4807726;29;20404;-83
2021/01/18 00:49:13;;;;;;;21.90;4.13;;;;;;;2.53;100.00;102390.72;4809867;29;20090;-83
2021/01/18 00:51:38;;;;;;;16.77;4.63;;;;;;;2.49;100.00;102373.28;4791766;29;20110;-83
2021/01/18 00:54:04;;;;;;;16.85;3.70;;;;;;;2.58;100.00;102365.56;4803827;29;20090;-83
2021/01/18 00:56:30;;;;;;;14.80;4.13;;;;;;;2.68;100.00;102387.44;4810894;29;20556;-83
2021/01/18 00:58:55;;;;;;;19.88;4.10;;;;;;;2.63;100.00;102373.47;4806728;29;20055;-83
2021/01/18 01:01:21;;;;;;;19.63;3.78;;;;;;;2.68;100.00;102371.78;4803033;29;20031;-82
2021/01/18 01:03:49;;;;;;;22.88;3.78;;;;;;;2.67;100.00;102368.31;4813305;29;20095;-83
2021/01/18 01:06:14;;;;;;;15.27;4.03;;;;;;;2.70;100.00;102378.75;4817048;29;20034;-83
2021/01/18 01:08:40;;;;;;;15.52;4.10;;;;;;;2.58;100.00;102365.56;4818395;29;20070;-83
2021/01/18 01:11:05;;;;;;;17.20;5.50;;;;;;;2.63;100.00;102365.63;4788329;29;20041;-84
2021/01/18 01:13:30;;;;;;;24.08;5.90;;;;;;;2.64;100.00;102372.59;4795883;29;20031;-84
2021/01/18 01:15:59;;;;;;;21.65;4.80;;;;;;;2.64;100.00;102370.84;4810058;29;20468;-84
2021/01/18 01:18:24;;;;;;;24.77;5.10;;;;;;;2.70;100.00;102367.44;4812844;29;20046;-84
2021/01/18 01:20:49;;;;;;;28.52;6.05;;;;;;;2.64;100.00;102359.53;4810527;29;20058;-84
2021/01/18 01:23:15;;;;;;;20.88;5.10;;;;;;;2.56;100.00;102357.72;4813582;29;20090;-84
2021/01/18 01:25:40;;;;;;;13.18;4.43;;;;;;;2.64;100.00;102368.25;4813239;29;20106;-84
2021/01/18 01:28:05;;;;;;;16.80;4.85;;;;;;;2.61;100.00;102373.44;4800908;29;20030;-84
2021/01/18 01:31:10;;;;;;;23.50;5.90;;;;;;;2.47;100.00;102347.16;4805290;29;20037;-84
2021/01/18 01:33:36;;;;;;;23.83;5.43;;;;;;;2.40;100.00;102340.09;4787021;29;20090;-84
2021/01/18 01:36:01;;;;;;;21.35;6.10;;;;;;;2.48;100.00;102353.25;4800534;29;20030;-83
2021/01/18 01:38:27;;;;;;;24.23;5.78;;;;;;;2.54;100.00;102369.84;4797049;29;20051;-83
2021/01/18 01:40:58;;;;;;;30.23;7.47;;;;;;;2.32;100.00;102342.63;4815736;29;20026;-83
2021/01/18 01:43:23;;;;;;;21.33;5.68;;;;;;;2.42;100.00;102354.06;4792677;29;20145;-84
2021/01/18 01:45:48;;;;;;;26.60;6.53;;;;;;;2.56;100.00;102367.25;4806958;29;20054;-83
2021/01/18 01:48:14;;;;;;;24.00;4.88;;;;;;;2.39;100.00;102346.19;4792113;29;20034;-84
2021/01/18 01:50:40;;;;;;;16.05;4.10;;;;;;;2.57;100.00;102361.22;4799479;29;20088;-84
2021/01/18 01:53:20;;;;;;;26.38;5.53;;;;;;;2.62;100.00;102366.50;4796521;29;20748;-83
2021/01/18 01:55:45;;;;;;;24.42;4.53;;;;;;;2.75;100.00;102373.59;4783269;29;20035;-84
2021/01/18 01:58:14;;;;;;;18.88;4.82;;;;;;;2.59;100.00;102357.75;4787007;29;20069;-84
2021/01/18 02:00:41;;;;;;;19.88;4.82;;;;;;;2.67;100.00;102359.59;4793431;29;20045;-84
2021/01/18 02:03:10;;;;;;;20.17;6.80;;;;;;;2.69;100.00;102370.91;4809043;29;20613;-84
2021/01/18 02:05:37;;;;;;;15.25;4.57;;;;;;;2.69;100.00;102369.19;4820469;29;20507;-84
2021/01/18 02:08:04;;;;;;;30.45;4.63;;;;;;;2.80;100.00;102367.56;4790891;29;20030;-84
2021/01/18 02:10:30;;;;;;;21.02;4.45;;;;;;;2.81;100.00;102371.06;4807678;29;20035;-84
2021/01/18 02:13:00;;;;;;;18.15;4.68;;;;;;;2.70;100.00;102367.44;4795556;29;20049;-84
2021/01/18 02:16:10;;;;;;;;;;;;;;;;;;;;;
2021/01/18 02:19:09;;;;;;;31.48;5.28;;;;;;;2.72;100.00;102371.84;4781321;29;20040;-83
2021/01/18 02:21:57;;;;;;;20.57;5.93;;;;;;;2.73;100.00;102373.59;4805349;29;21679;-83
2021/01/18 02:24:25;;;;;;;13.30;3.38;;;;;;;2.65;100.00;102372.59;4791612;29;20046;-84
2021/01/18 02:27:29;;;;;;;27.92;5.35;;;;;;;2.61;100.00;102357.78;4793313;29;20392;-83
2021/01/18 02:30:32;;;;;;;30.90;4.53;;;;;;;2.70;100.00;102385.72;4798788;29;20092;-84
2021/01/18 02:33:30;;;;;;;34.15;5.38;;;;;;;2.73;100.00;102381.41;4800509;29;20058;-84
2021/01/18 02:36:15;;;;;;;23.00;6.18;;;;;;;2.71;100.00;102375.31;4807679;29;20419;-84
2021/01/18 02:38:49;;;;;;;16.67;5.95;;;;;;;2.79;100.00;102375.41;4811457;29;20056;-84
2021/01/18 02:41:23;;;;;;;17.20;4.13;;;;;;;2.78;100.00;102379.75;4802824;29;20062;-84
2021/01/18 02:43:52;;;;;;;29.05;4.40;;;;;;;2.77;100.00;102382.34;4796882;29;20034;-84
2021/01/18 02:46:33;;;;;;;17.88;4.55;;;;;;;2.74;100.00;102361.41;4793842;29;20030;-84
2021/01/18 02:49:11;;;;;;;15.43;4.72;;;;;;;2.71;100.00;102357.03;4805450;29;20129;-83
2021/01/18 02:51:41;;;;;;;18.10;5.38;;;;;;;2.70;100.00;102347.44;4802108;29;20035;-83
2021/01/18 02:54:07;;;;;;;15.52;4.95;;;;;;;2.88;100.00;102382.47;4796548;29;20039;-84
2021/01/18 02:56:33;;;;;;;20.52;5.18;;;;;;;2.96;100.00;102380.81;4802764;29;20074;-84
2021/01/18 02:59:00;;;;;;;17.35;5.97;;;;;;;2.87;100.00;102365.06;4817092;29;20050;-84
2021/01/18 03:01:50;;;;;;;24.20;5.63;;;;;;;3.01;100.00;102373.91;4808539;29;20034;-84
2021/01/18 03:04:40;;;;;;;21.27;6.28;;;;;;;2.98;100.00;102379.97;4828377;29;20042;-84
2021/01/18 03:07:12;;;;;;;22.13;6.20;;;;;;;3.04;100.00;102372.19;4803563;29;20034;-84
2021/01/18 03:10:03;;;;;;;24.85;5.38;;;;;;;3.15;100.00;102374.94;4809182;29;20039;-84
2021/01/18 03:12:45;;;;;;;20.35;5.07;;;;;;;3.10;100.00;102367.03;4808617;29;20095;-83
2021/01/18 03:15:13;;;;;;;18.38;4.80;;;;;;;3.26;100.00;102361.97;4826273;29;20026;-82
2021/01/18 03:17:41;;;;;;;24.10;5.30;;;;;;;3.26;100.00;102354.13;4818524;29;20064;-82
2021/01/18 03:20:08;;;;;;;22.92;5.55;;;;;;;3.30;100.00;102362.03;4828281;29;20113;-84
2021/01/18 03:22:33;;;;;;;31.17;6.30;;;;;;;3.33;100.00;102358.56;4815207;29;20026;-84
2021/01/18 03:25:04;;;;;;;22.70;5.65;;;;;;;3.38;100.00;102357.75;4812601;29;20472;-84
2021/01/18 03:27:48;;;;;;;26.30;6.18;;;;;;;3.35;100.00;102351.59;4815006;29;20113;-84
2021/01/18 03:30:14;;;;;;;20.38;5.93;;;;;;;3.26;100.00;102347.19;4810398;29;20039;-84
2021/01/18 03:32:39;;;;;;;23.48;6.93;;;;;;;3.28;100.00;102348.06;4809349;29;20472;-84
2021/01/18 03:35:05;;;;;;;28.85;6.05;;;;;;;3.26;100.00;102351.53;4824648;29;20125;-84
2021/01/18 03:37:30;;;;;;;23.67;6.00;;;;;;;3.26;100.00;102351.53;4809164;29;20049;-83
2021/01/18 03:39:55;;;;;;;25.52;5.60;;;;;;;3.31;100.00;102339.38;4821309;29;20034;-84
2021/01/18 03:42:21;;;;;;;31.60;6.60;;;;;;;3.32;100.00;102344.63;4809306;29;20118;-83
2021/01/18 03:44:46;;;;;;;35.85;7.50;;;;;;;3.29;100.00;102347.22;4811737;29;20037;-84
2021/01/18 03:47:11;;;;;;;30.05;6.95;;;;;;;3.23;100.00;102341.06;4809420;29;20071;-84
2021/01/18 03:49:36;;;;;;;24.67;6.95;;;;;;;3.24;100.00;102338.44;4813140;29;20037;-84
2021/01/18 03:52:02;;;;;;;28.55;9.27;;;;;;;3.26;100.00;102343.69;4821202;29;20141;-84
2021/01/18 03:54:27;;;;;;;28.27;6.68;;;;;;;3.20;100.00;102336.66;4831880;29;20046;-84
2021/01/18 03:56:52;;;;;;;26.15;7.22;;;;;;;3.24;100.00;102337.56;4827546;29;20046;-84
2021/01/18 03:59:26;;;;;;;22.75;6.65;;;;;;;3.18;100.00;102329.69;4828716;29;20065;-83
2021/01/18 04:01:53;;;;;;;36.17;8.93;;;;;;;3.06;100.00;102306.91;4819798;29;20038;-83
2021/01/18 04:04:19;;;;;;;29.38;7.38;;;;;;;3.02;100.00;102313.84;4813351;29;20027;-83
2021/01/18 04:06:44;;;;;;;22.10;7.13;;;;;;;3.09;100.00;102322.63;4796722;29;20125;-83
2021/01/18 04:09:12;;;;;;;33.00;7.53;;;;;;;2.94;100.00;102306.78;4812103;29;20057;-84
2021/01/18 04:11:58;;;;;;;27.67;7.63;;;;;;;3.01;100.00;102305.97;4811917;29;20046;-84
2021/01/18 04:14:23;;;;;;;34.30;7.40;;;;;;;3.22;100.00;102328.84;4821881;29;20047;-84
2021/01/18 04:16:49;;;;;;;18.08;6.97;;;;;;;3.09;100.00;102297.38;4813899;29;20282;-84
2021/01/18 04:19:14;;;;;;;26.80;7.03;;;;;;;3.13;100.00;102316.56;4813304;29;20058;-83
2021/01/18 04:21:39;;;;;;;22.75;8.07;;;;;;;3.26;100.00;102320.16;4820070;29;20492;-83
2021/01/18 04:24:05;;;;;;;26.35;6.43;;;;;;;3.29;100.00;102321.06;4808519;29;20038;-83
2021/01/18 04:26:31;;;;;;;27.00;7.10;;;;;;;3.23;100.00;102323.63;4827479;29;20083;-82
2021/01/18 04:28:59;;;;;;;33.83;9.43;;;;;;;3.24;100.00;102319.28;4824130;29;20037;-83
2021/01/18 04:31:24;;;;;;;29.67;8.48;;;;;;;3.14;100.00;102317.44;4826912;29;20103;-83
2021/01/18 04:33:49;;;;;;;28.58;7.50;;;;;;;3.17;100.00;102318.38;4826514;29;20035;-85
2021/01/18 04:36:14;;;;;;;32.67;7.72;;;;;;;3.17;100.00;102320.97;4808723;29;20026;-85
2021/01/18 04:38:40;;;;;;;22.75;7.40;;;;;;;3.20;100.00;102318.38;4812270;29;20038;-85
2021/01/18 04:41:09;;;;;;;28.88;8.10;;;;;;;3.11;100.00;102305.22;4817393;29;20113;-83
2021/01/18 04:43:37;;;;;;;27.42;8.13;;;;;;;3.01;100.00;102295.53;4826101;29;20089;-83
2021/01/18 04:46:09;;;;;;;32.00;8.75;;;;;;;3.03;100.00;102307.78;4825442;29;20049;-84
2021/01/18 04:48:37;;;;;;;38.20;9.18;;;;;;;3.00;100.00;102317.28;4811373;29;20062;-84
2021/01/18 04:51:06;;;;;;;30.52;9.70;;;;;;;3.05;100.00;102318.22;4814079;29;20086;-85
2021/01/18 04:53:32;;;;;;;41.65;8.60;;;;;;;3.02;100.00;102303.41;4815439;29;20038;-84
2021/01/18 04:56:31;;;;;;;32.53;8.63;;;;;;;3.08;100.00;102311.31;4807079;29;20038;-85
2021/01/18 04:59:01;;;;;;;38.03;9.05;;;;;;;3.04;100.00;102306.91;4832419;29;20499;-82
2021/01/18 05:01:30;;;;;;;30.15;8.55;;;;;;;2.99;100.00;102298.13;4811058;29;20167;-84
2021/01/18 05:04:03;;;;;;;33.08;9.35;;;;;;;2.99;100.00;102298.13;4789547;29;20061;-84
2021/01/18 05:10:36;;;;;;;29.88;7.30;;;;;;;2.78;100.00;102280.53;4752112;30;20051;-84
2021/01/18 05:13:08;;;;;;;33.90;8.32;;;;;;;2.69;100.00;102275.19;4757655;29;20036;-84
2021/01/18 05:15:39;;;;;;;33.45;8.10;;;;;;;2.70;100.00;102269.09;4756009;30;20043;-84
2021/01/18 05:18:08;;;;;;;23.17;7.15;;;;;;;2.72;100.00;102267.41;4754666;30;20041;-84
2021/01/18 05:20:41;;;;;;;34.35;7.95;;;;;;;2.76;100.00;102269.19;4751848;30;20093;-83
2021/01/18 05:23:08;;;;;;;29.75;7.82;;;;;;;2.87;100.00;102271.91;4751541;30;20135;-83
2021/01/18 05:25:35;;;;;;;27.10;7.28;;;;;;;3.04;100.00;102290.34;4764597;30;20039;-83
2021/01/18 05:28:04;;;;;;;27.70;7.95;;;;;;;3.00;100.00;102289.44;4748020;30;20044;-83
2021/01/18 05:30:40;;;;;;;25.83;7.72;;;;;;;3.06;100.00;102278.16;4751090;30;20057;-83
2021/01/18 05:33:08;;;;;;;30.25;9.60;;;;;;;3.09;100.00;102289.53;4759580;30;20048;-84
2021/01/18 05:35:37;;;;;;;25.60;7.65;;;;;;;3.08;100.00;102289.53;4759433;30;20040;-83
2021/01/18 05:38:14;;;;;;;28.15;8.85;;;;;;;3.11;100.00;102273.88;4753372;30;20040;-83
2021/01/18 05:40:48;;;;;;;31.05;8.15;;;;;;;3.19;100.00;102293.09;4751286;30;20044;-83
2021/01/18 05:43:15;;;;;;;25.50;7.40;;;;;;;3.12;100.00;102278.25;4740745;30;20037;-83
2021/01/18 05:45:43;;;;;;;25.75;8.57;;;;;;;3.14;100.00;102279.13;4776847;29;20067;-83
2021/01/18 05:48:10;;;;;;;29.15;9.32;;;;;;;3.07;100.00;102270.38;4803324;29;20057;-83
2021/01/18 05:50:36;;;;;;;22.77;8.10;;;;;;;3.09;100.00;102278.22;4818239;29;20031;-83
2021/01/18 05:53:28;;;;;;;25.70;7.47;;;;;;;3.05;100.00;102285.13;4808807;29;20034;-83
2021/01/18 05:55:54;;;;;;;28.60;8.63;;;;;;;3.05;100.00;102279.03;4810508;29;20133;-83
2021/01/18 05:58:38;;;;;;;27.95;7.45;;;;;;;2.95;100.00;102275.47;4826870;29;20050;-83
2021/01/18 06:01:03;;;;;;;32.70;9.18;;;;;;;2.93;100.00;102271.97;4824361;29;20038;-84
2021/01/18 06:03:32;;;;;;;32.17;8.07;;;;;;;2.97;100.00;102273.75;4819460;29;20027;-83
2021/01/18 06:05:58;;;;;;;27.83;8.98;;;;;;;3.05;100.00;102266.84;4811228;29;20035;-83
2021/01/18 06:08:25;;;;;;;23.48;8.90;;;;;;;3.05;100.00;102285.13;4796192;29;20740;-83
2021/01/18 06:10:55;;;;;;;30.63;7.97;;;;;;;3.02;100.00;102279.03;4801624;29;20049;-83
2021/01/18 06:13:23;;;;;;;27.02;7.72;;;;;;;3.05;100.00;102281.66;4815881;29;20042;-82
2021/01/18 06:16:34;;;;;;;34.33;8.00;;;;;;;3.01;100.00;102282.47;4810830;29;20452;-82
2021/01/18 06:19:09;;;;;;;19.27;6.95;;;;;;;3.07;100.00;102283.44;4818339;29;20058;-84
2021/01/18 06:21:41;;;;;;;20.63;7.65;;;;;;;3.08;100.00;102274.72;4819498;29;20054;-83
2021/01/18 06:24:21;;;;;;;22.52;7.07;;;;;;;3.04;100.00;102280.78;4822529;29;20035;-83
2021/01/18 06:26:47;;;;;;;27.95;7.30;;;;;;;3.16;100.00;102277.38;4805059;29;20034;-83
2021/01/18 06:29:39;;;;;;;30.70;7.20;;;;;;;3.22;100.00;102279.22;4806389;29;20035;-83
2021/01/18 06:32:09;;;;;;;28.88;7.95;;;;;;;3.21;100.00;102262.63;4812870;29;20042;-83
2021/01/18 06:34:35;;;;;;;19.80;6.55;;;;;;;3.22;100.00;102272.25;4818194;29;20157;-83
2021/01/18 06:37:29;;;;;;;23.65;6.82;;;;;;;3.26;100.00;102270.50;4808467;29;20457;-84
2021/01/18 06:40:25;;;;;;;30.85;8.05;;;;;;;3.27;100.00;102269.69;4815958;29;20050;-84
2021/01/18 06:42:50;;;;;;;26.35;8.25;;;;;;;3.27;100.00;102260.09;4753839;30;20567;-84
2021/01/18 06:45:20;;;;;;;23.73;6.57;;;;;;;3.22;100.00;102250.47;4740561;30;20045;-84
2021/01/18 06:47:48;;;;;;;27.98;7.13;;;;;;;3.25;100.00;102255.69;4755789;30;20052;-84
2021/01/18 06:50:13;;;;;;;31.38;8.88;;;;;;;3.23;100.00;102258.31;4754861;30;20036;-83
2021/01/18 06:52:46;;;;;;;31.65;8.50;;;;;;;3.31;100.00;102255.75;4750073;30;20097;-83
2021/01/18 06:55:23;;;;;;;22.88;6.95;;;;;;;3.28;100.00;102251.38;4733222;30;20032;-83
2021/01/18 06:58:02;;;;;;;27.30;8.18;;;;;;;3.19;100.00;102253.91;4753294;30;20044;-83
2021/01/18 07:00:41;;;;;;;28.73;8.30;;;;;;;3.29;100.00;102260.97;4760918;30;20051;-83
2021/01/18 07:03:40;;;;;;;27.98;8.25;;;;;;;3.31;100.00;102269.72;4763311;30;20067;-83
2021/01/18 07:06:35;;;;;;;27.75;10.50;;;;;;;3.27;100.00;102262.72;4697626;30;20605;-83
2021/01/18 07:09:34;;;;;;;25.10;7.38;;;;;;;3.30;100.00;102254.00;4722195;30;20037;-84
2021/01/18 07:12:04;;;;;;;22.17;7.07;;;;;;;3.10;100.00;102215.53;4682462;30;20116;-83
2021/01/18 07:14:30;;;;;;;32.63;8.40;;;;;;;3.19;100.00;102230.41;4686051;30;20081;-83
2021/01/18 07:17:03;;;;;;;29.33;8.70;;;;;;;3.22;100.00;102251.34;4685138;30;20052;-83
2021/01/18 07:19:36;;;;;;;29.30;9.15;;;;;;;3.22;100.00;102256.56;4689207;30;20875;-84
2021/01/18 07:22:19;;;;;;;33.30;7.82;;;;;;;3.29;100.00;102257.47;4718026;30;20080;-84
2021/01/18 07:24:50;;;;;;;39.47;9.35;;;;;;;3.27;100.00;102256.63;4699877;30;21572;-84
2021/01/18 07:27:24;;;;;;;25.10;8.25;;;;;;;3.28;100.00;102255.75;4716087;30;20045;-84
2021/01/18 07:29:53;;;;;;;25.15;7.40;;;;;;;3.20;100.00;102255.66;4718275;30;20077;-83
2021/01/18 07:32:26;;;;;;;25.35;7.97;;;;;;;3.18;100.00;102246.94;4708480;30;20045;-84
2021/01/18 07:34:51;;;;;;;32.78;7.50;;;;;;;3.22;100.00;102255.69;4713090;30;20060;-84
2021/01/18 07:37:17;;;;;;;24.55;7.97;;;;;;;3.17;100.00;102267.84;4714620;30;20483;-84
2021/01/18 07:39:43;;;;;;;35.53;8.07;;;;;;;3.22;100.00;102272.25;4715444;30;20048;-82
2021/01/18 07:42:32;;;;;;;28.65;9.10;;;;;;;3.24;100.00;102280.09;4667684;30;20048;-84
2021/01/18 07:58:15;;;;;;;27.42;7.20;;;;;;;3.37;100.00;102266.28;4808106;24;20055;-81
2021/01/18 08:07:18;;;;;;;31.48;7.03;;;;;;;3.45;100.00;102267.19;4812051;24;20069;-83
2021/01/18 08:09:58;;;;;;;27.08;7.80;;;;;;;3.47;100.00;102278.56;4750057;30;20778;-81
2021/01/18 08:12:31;;;;;;;23.85;5.95;;;;;;;3.41;100.00;102249.72;4723575;30;20119;-81
2021/01/18 08:15:15;;;;;;;21.48;5.53;;;;;;;3.45;100.00;102266.31;4751773;30;20036;-81
2021/01/18 08:18:54;;;;;;;23.13;7.78;;;;;;;3.55;100.00;102276.84;4753678;30;20055;-83
2021/01/18 08:28:51;;;;;;;28.85;6.03;;;;;;;3.60;100.00;102280.38;4751615;30;20512;-82
2021/01/18 08:37:14;;;;;;;24.17;7.43;;;;;;;3.76;100.00;102294.44;4841572;24;20066;-83
2021/01/18 08:40:06;;;;;;;25.85;5.80;;;;;;;3.79;100.00;102289.22;4789262;29;20099;-84
2021/01/18 08:46:36;;;;;;;21.15;7.20;;;;;;;3.82;100.00;102289.25;4787721;29;20865;-85
2021/01/18 08:59:18;;;;;;;21.17;5.17;;;;;;;3.85;100.00;102286.66;4853749;24;20054;-85
2021/01/18 09:08:07;;;;;;;16.60;5.90;;;;;;;3.93;100.00;102276.25;4850197;24;20062;-88
2021/01/18 09:14:30;;;;;;;21.35;6.07;;;;;;;3.93;100.00;102268.41;4730700;29;20186;-84
2021/01/18 09:17:55;;;;;;;25.05;5.38;;;;;;;3.99;100.00;102255.34;4739428;30;20124;-85
2021/01/18 09:40:24;;;;;;;21.73;6.18;;;;;;;4.21;100.00;102238.00;4805456;29;20051;-85
2021/01/18 09:46:24;;;;;;;30.02;5.60;;;;;;;4.29;100.00;102238.91;4816923;24;20067;-84
2021/01/18 09:48:50;;;;;;;21.92;5.82;;;;;;;4.27;100.00;102222.34;4799030;29;20926;-83
2021/01/18 09:51:15;;;;;;;34.67;6.60;;;;;;;4.31;100.00;102231.06;4789095;29;20036;-83
2021/01/18 09:53:57;;;;;;;16.00;5.22;;;;;;;4.32;100.00;102223.22;4786304;29;20039;-86
2021/01/18 09:56:31;;;;;;;16.75;6.38;;;;;;;4.26;100.00;102211.84;4787365;29;20481;-83
2021/01/18 09:59:25;;;;;;;22.23;6.25;;;;;;;4.34;100.00;102218.00;4790087;29;20126;-87
2021/01/18 10:37:46;;;;;;;23.83;4.10;;;;;;;5.10;100.00;102186.66;2234790;24;20053;-85
2021/01/18 10:54:59;;;;;;;24.30;4.67;;;;;;;5.16;100.00;102188.41;4100754;27;20062;-82
2021/01/18 10:57:26;;;;;;;21.55;4.85;;;;;;;5.19;100.00;102185.78;4797199;29;20034;-88
2021/01/18 11:00:08;;;;;;;21.05;4.18;;;;;;;5.30;100.00;102191.88;4771322;30;20047;-84
2021/01/18 11:02:34;;;;;;;17.98;4.03;;;;;;;5.25;100.00;102185.78;4755117;30;20362;-84
2021/01/18 11:05:01;;;;;;;26.80;4.57;;;;;;;5.32;100.00;102181.38;4755986;30;20092;-84
2021/01/18 11:07:27;;;;;;;16.10;4.30;;;;;;;5.31;100.00;102172.66;4758188;30;20039;-84
2021/01/18 11:09:59;;;;;;;23.13;4.10;;;;;;;5.31;100.00;102156.91;4757489;30;20456;-85
2021/01/18 11:12:38;;;;;;;23.83;4.32;;;;;;;5.32;100.00;102168.28;4758627;30;20060;-84
2021/01/18 11:15:07;;;;;;;22.60;5.65;;;;;;;5.28;100.00;102154.31;4756184;30;20950;-85
2021/01/18 11:17:33;;;;;;;23.42;3.35;;;;;;;5.44;100.00;102152.53;4741554;30;20042;-85
2021/01/18 11:19:58;;;;;;;23.33;4.10;;;;;;;5.51;100.00;102143.78;4757700;30;20047;-85
2021/01/18 11:22:26;;;;;;;19.75;4.00;;;;;;;5.47;100.00;102128.91;4778317;30;20118;-85
2021/01/18 11:24:52;;;;;;;15.18;3.58;;;;;;;5.31;100.00;102138.56;4757649;30;20126;-85
2021/01/18 11:27:20;;;;;;;28.27;4.43;;;;;;;5.56;100.00;102135.91;4751738;30;20031;-84
2021/01/18 11:29:48;;;;;;;27.67;4.47;;;;;;;5.58;100.00;102149.91;4756950;29;20039;-84
2021/01/18 11:32:13;;;;;;;21.05;4.25;;;;;;;5.53;100.00;102155.16;4781433;29;20054;-84
2021/01/18 11:34:39;;;;;;;22.73;5.78;;;;;;;5.88;100.00;102160.28;4785381;29;20069;-85
2021/01/18 11:37:05;;;;;;;20.02;3.97;;;;;;;6.14;100.00;102161.94;4791544;29;20469;-85
2021/01/18 11:39:30;;;;;;;25.77;6.03;;;;;;;6.11;100.00;102173.31;4794204;29;20043;-85
2021/01/18 11:41:59;;;;;;;20.15;3.90;;;;;;;5.75;100.00;102153.31;4788034;29;20031;-85
2021/01/18 11:44:24;;;;;;;28.48;4.32;;;;;;;5.81;100.00;102176.91;4809156;29;20062;-85
2021/01/18 11:46:57;;;;;;;23.20;4.10;;;;;;;5.77;100.00;102151.53;4793439;29;20054;-85
2021/01/18 11:49:23;;;;;;;26.15;3.92;;;;;;;6.28;100.00;102180.25;4794341;29;20023;-85
2021/01/18 11:51:49;;;;;;;15.48;3.45;;;;;;;6.35;100.00;102174.06;4794387;29;20065;-83
2021/01/18 11:54:14;;;;;;;18.90;3.88;;;;;;;6.47;100.00;102190.63;4797199;29;20518;-82
2021/01/18 11:56:46;;;;;;;12.13;3.00;;;;;;;6.35;100.00;102172.31;4796938;29;20034;-85
2021/01/18 11:59:31;;;;;;;19.55;3.30;;;;;;;6.59;100.00;102162.56;4808461;29;20042;-84
2021/01/18 12:01:57;;;;;;;17.67;2.97;;;;;;;6.53;100.00;102181.00;4800768;29;20059;-83
2021/01/18 12:04:31;;;;;;;16.88;3.33;;;;;;;6.40;100.00;102172.28;4795163;29;20039;-85
2021/01/18 12:07:10;;;;;;;20.80;2.80;;;;;;;5.94;100.00;102167.28;4803967;29;20085;-86
2021/01/18 12:10:13;;;;;;;12.70;3.22;;;;;;;6.11;100.00;102159.31;4797435;29;20122;-85
2021/01/18 12:16:13;;;;;;;23.92;3.78;;;;;;;5.89;100.00;102158.53;4815845;29;20110;-84
2021/01/18 12:19:37;;;;;;;16.80;3.10;;;;;;;6.44;100.00;102129.38;4792439;29;20043;-84
2021/01/18 12:23:04;;;;;;;12.77;2.65;;;;;;;6.28;100.00;102139.13;4775845;29;20971;-84
2021/01/18 12:25:30;;;;;;;23.70;6.68;;;;;;;6.14;100.00;102128.69;4798361;29;20038;-81
2021/01/18 12:27:57;;;;;;;18.25;3.95;;;;;;;6.02;100.00;102131.34;4791090;29;20031;-85
2021/01/18 12:34:21;;;;;;;22.48;3.55;;;;;;;5.91;100.00;102131.41;4817361;29;20073;-85
2021/01/18 12:37:34;;;;;;;24.25;3.80;;;;;;;5.95;100.00;102120.03;4813325;29;20046;-85
2021/01/18 12:40:00;;;;;;;19.98;4.40;;;;;;;5.79;100.00;102099.97;4741338;30;20054;-83
2021/01/18 12:42:28;;;;;;;22.13;3.85;;;;;;;5.86;100.00;102112.16;4729406;30;20052;-86
2021/01/18 12:45:23;;;;;;;24.92;4.05;;;;;;;5.92;100.00;102112.19;4724116;30;20157;-85
2021/01/18 12:47:54;;;;;;;25.45;4.65;;;;;;;6.37;100.00;102101.41;4724851;30;20127;-85
2021/01/18 12:51:15;;;;;;;25.15;4.18;;;;;;;6.12;100.00;102088.44;4713079;30;20040;-84
2021/01/18 13:01:12;;;;;;;21.60;3.38;;;;;;;5.82;100.00;102096.44;4794244;29;20112;-85
2021/01/18 13:10:34;;;;;;;29.00;4.45;;;;;;;5.82;100.00;102083.31;4778654;24;20056;-85
2021/01/18 13:15:28;;;;;;;19.65;4.32;;;;;;;5.68;100.00;102050.19;4808543;24;20058;-84
2021/01/18 13:17:53;;;;;;;14.63;3.67;;;;;;;5.82;100.00;102080.69;4802348;29;20051;-83
2021/01/18 13:20:31;;;;;;;13.85;3.03;;;;;;;5.89;100.00;102085.91;4802097;29;20039;-83
2021/01/18 13:22:59;;;;;;;15.98;3.72;;;;;;;5.83;100.00;102061.47;4815164;29;20470;-83
2021/01/18 13:25:33;;;;;;;27.15;4.13;;;;;;;5.81;100.00;102068.47;4797855;29;20060;-83
2021/01/18 13:27:58;;;;;;;22.02;3.78;;;;;;;5.87;100.00;102071.03;4807954;29;20039;-83
2021/01/18 13:30:24;;;;;;;21.55;3.30;;;;;;;5.89;100.00;102075.44;4813090;29;20134;-84
2021/01/18 13:32:56;;;;;;;34.60;4.60;;;;;;;5.90;100.00;102068.41;4815493;29;20051;-84
2021/01/18 13:35:23;;;;;;;30.20;4.57;;;;;;;5.85;100.00;102057.94;4804097;29;20057;-84
2021/01/18 13:37:55;;;;;;;21.95;3.50;;;;;;;5.98;100.00;102064.03;4812488;29;20039;-84
2021/01/18 13:40:21;;;;;;;19.45;3.58;;;;;;;5.81;100.00;102057.97;4818414;29;20054;-83
2021/01/18 13:43:53;;;;;;;14.93;3.22;;;;;;;5.85;100.00;102057.94;4815643;29;20031;-84
2021/01/18 13:46:54;;;;;;;34.50;4.45;;;;;;;5.80;100.00;102070.22;4755899;30;20051;-84
2021/01/18 13:49:44;;;;;;;25.17;4.40;;;;;;;5.72;100.00;102049.28;4759818;30;20112;-84
2021/01/18 13:52:09;;;;;;;16.95;3.28;;;;;;;5.77;100.00;102049.22;4773375;30;20082;-81
2021/01/18 13:54:34;;;;;;;24.00;3.80;;;;;;;5.82;100.00;102062.34;4762656;30;20023;-81
2021/01/18 13:57:00;;;;;;;22.02;3.80;;;;;;;5.74;100.00;102054.53;4772033;30;20035;-81
2021/01/18 14:00:07;;;;;;;11.05;2.42;;;;;;;5.65;100.00;102052.81;4773105;30;20203;-83
2021/01/18 14:05:54;;;;;;;14.60;3.15;;;;;;;5.70;100.00;102058.03;4771826;30;20099;-83
2021/01/18 14:08:44;;;;;;;20.05;2.90;;;;;;;5.69;100.00;102058.91;4769020;30;20036;-83
2021/01/18 14:11:47;;;;;;;19.80;4.20;;;;;;;5.66;100.00;102054.53;4752481;30;20040;-83
2021/01/18 14:30:33;;;;;;;18.90;2.70;;;;;;;5.65;100.00;102049.31;6227494;22;805495;-83
2021/01/18 14:32:58;;;;;;;19.05;2.60;;;;;;;5.54;100.00;102038.00;6198959;23;20016;-84
2021/01/18 14:35:37;;;;;;;23.05;4.68;;;;;;;5.65;100.00;102047.56;6201713;23;20012;-82
2021/01/18 14:38:03;;;;;;;12.32;3.10;;;;;;;5.64;100.00;102037.09;6200273;23;20011;-84
2021/01/18 14:40:40;;;;;;;23.80;3.28;;;;;;;5.57;100.00;102032.72;6226453;23;20523;-84
2021/01/18 14:59:20;;;;;;;25.27;4.70;;;;;;;5.57;100.00;102017.91;6284277;22;20268;-83
2021/01/18 15:01:45;;;;;;;18.73;3.60;;;;;;;5.61;100.00;102018.72;6258783;22;20074;-82